Nearby METAR Reports

 

KFRG - , , USA
Distance from station: SSW 12mi, 20km
Updated: 07/14/2020 9:53pm
Overcast
Overcast
 Wind from N
Wind: N 7 mph , 11 km/h
Temperature: 77°F , 25°C
Dew Point: 63°F , 17°C
Humidity: 61%
Barometer: 30.05 inHg , 1017.6 hPa
Clouds: Overcast
Visibility: 10 miles , 16 km
Cloud details: Overcast 11000 ft
2020/07/15 01:53 KFRG 150153Z AUTO 01006KT 10SM OVC110 25/17 A3005 RMK AO2 SLP175 T02500172
KISP - , , USA
Distance from station: ESE 14mi, 23km
Updated: 07/14/2020 9:56pm
Mostly cloudy
Mostly cloudy
 Wind from NE
Wind: NE 3 mph , 6 km/h
Temperature: 72°F , 22°C
Dew Point: 70°F , 21°C
Humidity: 94%
Barometer: 30.04 inHg , 1017.3 hPa
Clouds: Mostly cloudy
Visibility: 10 miles , 16 km
Cloud details: Few Clouds 7500 ft
Mostly cloudy 10000 ft
Mostly cloudy 12000 ft
2020/07/15 01:56 KISP 150156Z 04003KT 10SM FEW075 BKN100 BKN120 22/21 A3004 RMK AO2 RAE01 SLP172 P0000 T02220206
 
KBDR - , , USA
Distance from station: NNE 21mi, 34km
Updated: 07/14/2020 9:52pm
Clear
Clear
 Wind from NNE
Wind: NNE 3 mph , 6 km/h
Temperature: 75°F , 24°C
Dew Point: 63°F , 17°C
Humidity: 65%
Barometer: 30.04 inHg , 1017.3 hPa
Clouds: Clear
Visibility: 10 miles , 16 km
2020/07/15 01:52 KBDR 150152Z 03003KT 10SM CLR 24/17 A3004 RMK AO2 SLP173 T02390172
KHPN - , , USA
Distance from station: WNW 22mi, 35km
Updated: 07/14/2020 9:56pm
Mostly cloudy
Mostly cloudy
 Wind from NW
Wind: NW 5 mph , 7 km/h
Temperature: 70°F , 21°C
Dew Point: 64°F , 18°C
Humidity: 83%
Barometer: 30.05 inHg , 1017.6 hPa
Clouds: Mostly cloudy
Visibility: 10 miles , 16 km
Cloud details: Partly cloudy 6500 ft
Mostly cloudy 11000 ft
2020/07/15 01:56 KHPN 150156Z 32004KT 10SM SCT065 BKN110 21/18 A3005 RMK AO2 SLP172 T02110183
 
KHWV - , , USA
Distance from station: ESE 26mi, 41km
Updated: 07/14/2020 9:56pm
Few Clouds
Few Clouds
 Wind from SSE
Wind: SSE 3 mph , 6 km/h
Temperature: 73°F , 23°C
Dew Point: 64°F , 18°C
Humidity: 74%
Barometer: 30.04 inHg , 1017.3 hPa
Clouds: Few Clouds
Visibility: 10 miles , 16 km
Cloud details: Few Clouds 10000 ft
2020/07/15 01:56 KHWV 150156Z AUTO 15003KT 10SM FEW100 23/18 A3004 RMK AO2 SLP171 T02330178
KJFK - , , USA
Distance from station: SW 29mi, 46km
Updated: 07/14/2020 9:51pm
Mostly cloudy
Mostly cloudy
 Wind from NE
Wind: NE 10 mph , 17 km/h
Temperature: 77°F , 25°C
Dew Point: 63°F , 17°C
Humidity: 61%
Barometer: 30.04 inHg , 1017.3 hPa
Clouds: Mostly cloudy
Visibility: 10 miles , 16 km
Cloud details: Few Clouds 6000 ft
Partly cloudy 8000 ft
Mostly cloudy 12000 ft
Mostly cloudy 25000 ft
2020/07/15 01:51 KJFK 150151Z 04009KT 10SM FEW060 SCT080 BKN120 BKN250 25/17 A3004 RMK AO2 WSHFT 0104 SLP173 T02500172
 
KLGA - , , USA
Distance from station: WSW 29mi, 47km
Updated: 07/14/2020 9:51pm
Partly cloudy
Partly cloudy
 Wind from ENE
Wind: ENE 12 mph , 19 km/h
Temperature: 77°F , 25°C
Dew Point: 63°F , 17°C
Humidity: 61%
Barometer: 30.04 inHg , 1017.3 hPa
Clouds: Partly cloudy
Visibility: 10 miles , 16 km
Cloud details: Partly cloudy 8000 ft
Partly cloudy 11000 ft
2020/07/15 01:51 KLGA 150151Z 06010KT 10SM SCT080 SCT110 25/17 A3004 RMK AO2 WSHFT 0047 SLP171 T02500172